Claremore, Oklahoma
Current Conditions -  °F | °C
As of 3:55 AM on Friday 19 Dec 2014 (Local Time) from KGCM Reporting Station
Haze Haze  
Wind Chill: 37°   Ceiling: 300
Heat Index: 37°   Visibility: 1.2mi
Dew Point: 36°   Wind: 3mph
Humidity: 93%   Direction: 10°N
Pressure: 30.23"   Gusts: NA
Location:  36.31°N, 95.61°W
Report Text: KGCM 190955Z AUTO 01003KT 1 1/4SM BR OVC003 03/02 A3023 RMK AO2
Loading
Personal Weather Stations






























Interactive Weather Map New forecast layout! Learn more

10-Day Weather Forecast

Advertisements
Track Severe Weather on mobile